Time;durP1;ratioP1;P1;durP2;ratioP2;P2;SDS_P1;SDS_P2;PMS_P1;PMS_P2;Temp;Humidity;BMP_temperature;BMP_pressure;BME280_temperature;BME280_humidity;BME280_pressure;Samples;Min_cycle;Max_cycle;Signal;HPM_P1;HPM_P2
2023/09/25 00:02:01;;;;;;;5.90;4.22;;;;;;;14.71;63.42;98113.66;6322968;28;20075;-69
2023/09/25 00:05:07;;;;;;;5.85;4.10;;;;;;;14.78;63.42;98127.41;6323134;28;20052;-69
2023/09/25 00:08:10;;;;;;;4.90;3.90;;;;;;;14.80;63.44;98105.16;6323044;28;20085;-69
2023/09/25 00:11:17;;;;;;;5.45;3.55;;;;;;;14.86;63.65;98118.97;6323613;28;20052;-69
2023/09/25 00:14:21;;;;;;;4.88;3.75;;;;;;;14.90;63.48;98115.19;6322904;28;20532;-70
2023/09/25 00:17:26;;;;;;;5.38;3.78;;;;;;;14.95;63.44;98119.25;6322903;28;20052;-69
2023/09/25 00:20:30;;;;;;;6.47;4.30;;;;;;;14.93;63.26;98115.00;6321843;28;20039;-69
2023/09/25 00:23:35;;;;;;;5.93;4.05;;;;;;;15.04;63.26;98117.81;6322829;28;20044;-69
2023/09/25 00:26:39;;;;;;;5.00;3.83;;;;;;;15.05;63.21;98112.41;6323329;28;20040;-69
2023/09/25 00:29:42;;;;;;;6.65;4.38;;;;;;;15.11;63.03;98108.50;6321911;28;20047;-69
2023/09/25 00:32:45;;;;;;;6.65;4.10;;;;;;;15.15;63.13;98111.84;6322669;28;20043;-69
2023/09/25 00:35:50;;;;;;;8.63;5.05;;;;;;;15.19;63.09;98111.53;6322980;28;20124;-69
2023/09/25 00:38:51;;;;;;;8.27;4.47;;;;;;;15.18;63.03;98112.50;6323140;28;20052;-69
2023/09/25 00:41:53;;;;;;;5.95;4.05;;;;;;;15.16;62.89;98109.06;6322075;28;20070;-69
2023/09/25 00:44:54;;;;;;;5.47;3.70;;;;;;;15.24;62.84;98114.75;6322513;28;20047;-69
2023/09/25 00:47:59;;;;;;;6.68;4.43;;;;;;;15.26;62.82;98115.50;6322447;28;20044;-70
2023/09/25 00:51:02;;;;;;;5.70;4.32;;;;;;;15.22;62.84;98108.69;6321492;28;20036;-69
2023/09/25 00:54:07;;;;;;;9.73;5.03;;;;;;;15.25;62.78;98105.84;6321942;28;20485;-69
2023/09/25 00:57:13;;;;;;;8.27;4.80;;;;;;;15.23;62.77;98107.75;6320978;28;20043;-69
2023/09/25 01:00:15;;;;;;;8.60;5.07;;;;;;;15.26;62.84;98107.56;6322295;28;20048;-69
2023/09/25 01:03:18;;;;;;;11.05;5.43;;;;;;;15.21;62.84;98104.34;6322900;28;20148;-69
2023/09/25 01:06:20;;;;;;;9.05;5.53;;;;;;;15.20;62.98;98096.47;6322856;28;20059;-69
2023/09/25 01:09:22;;;;;;;7.68;5.20;;;;;;;15.29;62.70;98108.31;6323161;28;20501;-69
2023/09/25 01:12:26;;;;;;;8.25;4.95;;;;;;;15.31;62.53;98103.75;6322657;28;20501;-69
2023/09/25 01:15:27;;;;;;;7.95;4.63;;;;;;;15.32;62.50;98108.97;6323405;28;20606;-69
2023/09/25 01:18:34;;;;;;;7.55;5.10;;;;;;;15.32;62.61;98101.00;6322754;28;20054;-69
2023/09/25 01:21:38;;;;;;;9.57;5.28;;;;;;;15.35;62.69;98102.63;6321503;28;20413;-69
2023/09/25 01:24:39;;;;;;;12.00;7.65;;;;;;;15.33;62.43;98101.84;6321518;28;20048;-69
2023/09/25 01:27:43;;;;;;;6.28;5.00;;;;;;;15.32;62.37;98100.16;6321303;28;20050;-69
2023/09/25 01:30:44;;;;;;;6.70;4.50;;;;;;;15.30;62.42;98096.75;6320728;28;20048;-69
2023/09/25 01:33:49;;;;;;;6.50;4.28;;;;;;;15.29;62.62;98089.75;6321222;28;20479;-69
2023/09/25 01:36:53;;;;;;;7.05;4.80;;;;;;;15.26;62.57;98086.34;6320221;28;20056;-69
2023/09/25 01:39:55;;;;;;;6.75;4.50;;;;;;;15.26;62.85;98091.66;6319731;28;20040;-69
2023/09/25 01:42:56;;;;;;;6.28;4.35;;;;;;;15.20;62.80;98092.03;6320732;28;20387;-69
2023/09/25 01:46:00;;;;;;;11.98;4.97;;;;;;;15.17;63.01;98097.53;6321051;28;20093;-69
2023/09/25 01:49:02;;;;;;;6.38;4.03;;;;;;;15.11;63.06;98097.91;6319421;28;20052;-69
2023/09/25 01:52:07;;;;;;;7.85;5.18;;;;;;;15.08;63.08;98106.06;6320245;28;20059;-69
2023/09/25 01:55:08;;;;;;;7.50;5.90;;;;;;;15.01;62.97;98091.50;6319811;28;20064;-70
2023/09/25 01:58:15;;;;;;;5.55;4.22;;;;;;;15.02;62.62;98098.50;6320838;28;20139;-69
2023/09/25 02:01:17;;;;;;;6.13;4.30;;;;;;;15.05;62.53;98104.44;6320482;28;20040;-69
2023/09/25 02:04:21;;;;;;;6.70;4.45;;;;;;;15.08;62.61;98086.66;6320297;28;20513;-69
2023/09/25 02:07:25;;;;;;;4.43;3.83;;;;;;;15.15;62.59;98098.59;6320399;28;20036;-69
2023/09/25 02:10:27;;;;;;;9.10;4.93;;;;;;;15.20;62.57;98100.00;6319665;28;20454;-69
2023/09/25 02:13:31;;;;;;;8.57;3.97;;;;;;;15.24;62.33;98098.84;6319670;28;20052;-69
2023/09/25 02:16:33;;;;;;;8.88;4.18;;;;;;;15.24;62.33;98104.13;6320216;28;20464;-69
2023/09/25 02:19:34;;;;;;;9.75;4.57;;;;;;;15.30;62.47;98104.69;6320046;28;20040;-69
2023/09/25 02:22:44;;;;;;;8.02;4.75;;;;;;;15.33;62.65;98104.50;6319070;28;20527;-70
2023/09/25 02:25:49;;;;;;;7.18;4.55;;;;;;;15.36;62.43;98101.66;6319699;28;20063;-69
2023/09/25 02:28:51;;;;;;;7.45;4.30;;;;;;;15.36;62.64;98091.88;6319419;28;20083;-69
2023/09/25 02:31:55;;;;;;;9.38;4.72;;;;;;;15.41;62.25;98100.41;6320040;28;20572;-70
2023/09/25 02:34:58;;;;;;;6.85;4.45;;;;;;;15.45;62.17;98101.03;6319426;28;20513;-69
2023/09/25 02:38:02;;;;;;;7.57;4.78;;;;;;;15.50;62.44;98097.13;6319002;28;20421;-69
2023/09/25 02:41:06;;;;;;;12.02;4.80;;;;;;;15.45;62.39;98093.09;6319498;28;20036;-69
2023/09/25 02:44:07;;;;;;;10.25;5.43;;;;;;;15.39;62.33;98096.16;6319169;28;20051;-69
2023/09/25 02:47:09;;;;;;;10.88;5.07;;;;;;;15.36;62.34;98099.00;6319066;28;20506;-70
2023/09/25 02:50:15;;;;;;;11.18;4.80;;;;;;;15.39;62.23;98097.00;6317336;28;20044;-69
2023/09/25 02:53:20;;;;;;;10.15;5.22;;;;;;;15.48;62.31;98087.59;6319510;28;20048;-70
2023/09/25 02:56:22;;;;;;;11.25;4.65;;;;;;;15.70;61.83;98093.22;6319428;28;20501;-71
2023/09/25 02:59:27;;;;;;;8.40;5.10;;;;;;;15.90;61.46;98086.56;6319375;28;20040;-70
2023/09/25 03:02:28;;;;;;;10.30;5.20;;;;;;;16.06;60.87;98091.72;6319073;28;20128;-70
2023/09/25 03:05:32;;;;;;;10.93;4.75;;;;;;;16.19;60.67;98090.88;6318522;28;20070;-70
2023/09/25 03:08:36;;;;;;;10.18;5.13;;;;;;;16.32;60.14;98086.44;6318891;28;20099;-70
2023/09/25 03:11:44;;;;;;;11.60;4.22;;;;;;;16.50;59.92;98093.13;6319212;28;20056;-70
2023/09/25 03:14:51;;;;;;;11.10;4.97;;;;;;;16.60;59.44;98080.03;6318761;28;20036;-70
2023/09/25 03:17:52;;;;;;;8.18;4.57;;;;;;;16.76;59.31;98087.81;6318058;28;20042;-70
2023/09/25 03:20:54;;;;;;;12.82;4.85;;;;;;;16.90;58.76;98087.69;6317834;28;20040;-69
2023/09/25 03:23:59;;;;;;;;;;;;;;;17.09;58.62;98094.34;6319441;28;20505;-68
2023/09/25 03:27:03;;;;;;;10.40;4.30;;;;;;;17.15;58.08;98094.75;6317875;28;19923;-69
2023/09/25 03:30:05;;;;;;;16.52;5.38;;;;;;;17.14;58.24;98097.53;6318408;28;20051;-69
2023/09/25 03:33:11;;;;;;;14.27;5.07;;;;;;;17.22;57.89;98101.34;6319076;28;20052;-70
2023/09/25 03:36:18;;;;;;;9.90;4.85;;;;;;;17.36;57.62;98097.69;6319139;28;20048;-69
2023/09/25 03:39:22;;;;;;;12.23;7.05;;;;;;;17.44;57.09;98092.66;6318435;28;20040;-70
2023/09/25 03:42:27;;;;;;;7.15;4.82;;;;;;;17.54;56.40;98102.59;6318257;28;20055;-69
2023/09/25 03:45:34;;;;;;;8.07;5.20;;;;;;;17.74;55.85;98094.00;6317805;28;20036;-70
2023/09/25 03:48:38;;;;;;;9.73;5.13;;;;;;;18.14;54.78;98102.50;6316674;28;20067;-70
2023/09/25 03:51:42;;;;;;;7.68;3.65;;;;;;;18.39;53.95;98093.50;6318688;28;20040;-68
2023/09/25 03:54:43;;;;;;;6.45;3.83;;;;;;;18.65;53.37;98089.75;6317866;28;20074;-68
2023/09/25 03:57:45;;;;;;;7.57;4.15;;;;;;;18.82;52.55;98087.53;6318458;28;20501;-70
2023/09/25 04:00:47;;;;;;;5.50;3.67;;;;;;;19.03;52.45;98092.13;6318337;28;20429;-69
2023/09/25 04:03:54;;;;;;;5.82;3.70;;;;;;;19.05;52.11;98088.34;6318179;28;20043;-68
2023/09/25 04:07:00;;;;;;;5.95;3.38;;;;;;;19.05;52.11;98095.47;6318348;28;20470;-69
2023/09/25 04:10:07;;;;;;;4.65;3.28;;;;;;;19.02;52.34;98082.41;6318270;28;20043;-69
2023/09/25 04:13:08;;;;;;;10.57;3.70;;;;;;;19.02;52.42;98095.72;6317702;28;20524;-69
2023/09/25 04:16:13;;;;;;;8.23;3.70;;;;;;;18.94;52.29;98091.03;6318266;28;20519;-69
2023/09/25 04:19:17;;;;;;;7.28;3.78;;;;;;;18.70;53.01;98091.09;6318511;28;20052;-69
2023/09/25 04:22:21;;;;;;;4.32;3.17;;;;;;;18.50;53.54;98094.47;6318524;28;20040;-69
2023/09/25 04:25:27;;;;;;;6.93;3.38;;;;;;;18.34;53.94;98082.34;6320563;28;20101;-69
2023/09/25 04:28:30;;;;;;;5.47;3.90;;;;;;;18.28;54.04;98082.81;6322855;28;20134;-69
2023/09/25 04:31:37;;;;;;;6.47;3.35;;;;;;;18.28;54.04;98088.13;6322057;28;20055;-69
2023/09/25 04:34:39;;;;;;;7.25;4.00;;;;;;;18.22;53.90;98083.28;6322088;28;20051;-70
2023/09/25 04:37:44;;;;;;;7.80;4.97;;;;;;;18.20;53.85;98085.22;6322428;28;20164;-69
2023/09/25 04:40:49;;;;;;;6.93;4.65;;;;;;;18.19;54.15;98086.19;6322800;28;20130;-69
2023/09/25 04:43:51;;;;;;;7.15;4.25;;;;;;;18.23;54.09;98079.69;6322329;28;20040;-70
2023/09/25 04:46:55;;;;;;;7.93;4.65;;;;;;;18.35;53.54;98088.53;6322688;28;20097;-70
2023/09/25 04:49:59;;;;;;;7.22;4.43;;;;;;;18.42;53.32;98076.41;6321746;28;20044;-70
2023/09/25 04:53:10;;;;;;;6.82;4.10;;;;;;;18.63;52.74;98076.56;6322321;28;20051;-68
2023/09/25 04:56:23;;;;;;;11.35;6.40;;;;;;;19.02;51.57;98079.72;6322062;28;20048;-69
2023/09/25 04:59:31;;;;;;;16.63;8.50;;;;;;;19.37;50.61;98073.38;6322137;28;20043;-69
2023/09/25 05:02:33;;;;;;;14.45;9.57;;;;;;;19.50;50.08;98074.91;6321736;28;20188;-69
2023/09/25 05:05:35;;;;;;;15.40;8.23;;;;;;;19.66;49.67;98077.19;6320991;28;20044;-69
2023/09/25 05:08:38;;;;;;;13.80;8.47;;;;;;;19.91;49.00;98080.50;6321224;28;20089;-69
2023/09/25 05:11:39;;;;;;;16.50;8.57;;;;;;;20.09;48.54;98073.59;6321057;28;20040;-69
2023/09/25 05:14:41;;;;;;;20.77;9.57;;;;;;;20.26;47.81;98060.63;6321301;28;20048;-70
2023/09/25 05:17:44;;;;;;;17.10;7.13;;;;;;;20.47;47.39;98072.16;6321372;28;20045;-70
2023/09/25 05:20:45;;;;;;;16.98;6.15;;;;;;;20.53;46.98;98065.47;6320851;28;20050;-69
2023/09/25 05:23:49;;;;;;;17.70;5.07;;;;;;;20.55;46.46;98059.00;6321579;28;20040;-69
2023/09/25 05:26:55;;;;;;;10.15;3.83;;;;;;;20.58;45.79;98063.22;6321632;28;20048;-70
2023/09/25 05:30:00;;;;;;;7.53;3.78;;;;;;;20.64;45.66;98057.34;6321468;28;20078;-70
2023/09/25 05:33:04;;;;;;;8.13;3.78;;;;;;;23.44;40.77;98064.50;6320760;28;20521;-71
2023/09/25 05:36:08;;;;;;;5.78;3.60;;;;;;;28.47;32.50;98066.38;6320966;28;20036;-69
2023/09/25 05:39:10;;;;;;;6.97;3.05;;;;;;;32.39;27.38;98071.56;6320605;28;20134;-69
2023/09/25 05:42:12;;;;;;;8.27;3.53;;;;;;;35.80;23.75;98071.88;6320910;28;20075;-69
2023/09/25 05:45:22;;;;;;;6.90;2.97;;;;;;;38.54;21.09;98069.97;6321127;28;20043;-69
2023/09/25 05:48:24;;;;;;;5.18;2.58;;;;;;;40.60;18.47;98066.69;6320723;28;20051;-69
2023/09/25 05:51:26;;;;;;;5.50;2.25;;;;;;;42.63;16.95;98069.66;6320410;28;20048;-69
2023/09/25 05:54:28;;;;;;;7.47;2.45;;;;;;;44.51;15.49;98064.41;6320023;28;20433;-68
2023/09/25 05:57:30;;;;;;;5.38;1.80;;;;;;;45.77;14.57;98061.63;6320625;28;20078;-68
2023/09/25 06:00:34;;;;;;;4.15;1.80;;;;;;;46.55;12.99;98058.22;6321051;28;20050;-69
2023/09/25 06:03:41;;;;;;;4.88;1.67;;;;;;;46.95;12.76;98049.44;6320730;28;20036;-68
2023/09/25 06:06:45;;;;;;;5.45;1.50;;;;;;;47.23;12.05;98051.13;6270705;28;20045;-70
2023/09/25 06:09:51;;;;;;;2.83;1.95;;;;;;;47.12;11.88;98043.28;6270532;28;20048;-68
2023/09/25 06:12:53;;;;;;;5.05;1.60;;;;;;;47.57;11.55;98038.72;6270641;28;20900;-69
2023/09/25 06:15:57;;;;;;;2.80;1.33;;;;;;;48.39;11.16;98036.81;6270869;28;20049;-67
2023/09/25 06:18:58;;;;;;;4.57;1.80;;;;;;;49.38;10.74;98036.66;6269748;28;20044;-69
2023/09/25 06:22:03;;;;;;;8.13;1.75;;;;;;;49.60;10.46;98041.28;6269715;28;20533;-68
2023/09/25 06:25:11;;;;;;;3.47;1.80;;;;;;;49.72;10.11;98032.28;6269468;28;20060;-68
2023/09/25 06:28:14;;;;;;;6.15;4.03;;;;;;;47.44;11.08;98017.25;6270803;28;20072;-69
2023/09/25 06:31:16;;;;;;;4.32;1.98;;;;;;;44.21;13.33;98011.94;6270430;28;20124;-69
2023/09/25 06:34:25;;;;;;;4.82;1.45;;;;;;;45.13;12.49;98013.78;6270067;28;20041;-68
2023/09/25 06:37:26;;;;;;;2.08;1.50;;;;;;;43.69;13.63;97992.88;6269967;28;20551;-68
2023/09/25 06:40:30;;;;;;;2.17;1.63;;;;;;;42.52;14.02;97987.75;6270136;28;20495;-68
2023/09/25 06:43:32;;;;;;;1.90;1.55;;;;;;;44.67;12.88;97997.63;6269708;28;20045;-68
2023/09/25 06:46:37;;;;;;;3.60;1.55;;;;;;;46.08;12.34;98000.84;6269572;28;20431;-68
2023/09/25 06:49:41;;;;;;;1.77;1.52;;;;;;;47.04;11.57;97996.63;6268579;28;20052;-68
2023/09/25 06:52:47;;;;;;;3.17;2.22;;;;;;;47.28;11.60;97985.25;6269546;28;20059;-68
2023/09/25 06:55:52;;;;;;;2.45;1.30;;;;;;;48.74;10.31;97990.34;6269488;28;20090;-69
2023/09/25 06:58:56;;;;;;;1.80;1.55;;;;;;;48.91;10.27;98005.56;6269527;28;20505;-68
2023/09/25 07:01:58;;;;;;;2.63;1.40;;;;;;;49.06;10.07;97987.53;6269094;28;20044;-68
2023/09/25 07:05:04;;;;;;;3.35;1.98;;;;;;;49.03;9.85;97993.75;6289870;28;20131;-68
2023/09/25 07:08:11;;;;;;;5.07;2.58;;;;;;;48.88;9.96;97987.47;6319383;28;20097;-68
2023/09/25 07:11:19;;;;;;;5.50;2.10;;;;;;;43.75;12.66;97965.13;6319072;28;20056;-69
2023/09/25 07:14:24;;;;;;;2.25;1.73;;;;;;;42.03;14.03;97963.47;6319082;28;20048;-68
2023/09/25 07:17:29;;;;;;;3.15;1.63;;;;;;;44.37;12.93;97960.78;6318356;28;20047;-68
2023/09/25 07:20:35;;;;;;;1.80;1.52;;;;;;;46.78;11.00;97958.94;6319242;28;20040;-68
2023/09/25 07:23:40;;;;;;;2.58;1.35;;;;;;;48.77;10.11;97963.75;6318821;28;20059;-68
2023/09/25 07:26:44;;;;;;;2.00;1.23;;;;;;;49.29;9.44;97958.34;6318062;28;20490;-69
2023/09/25 07:29:48;;;;;;;2.50;1.50;;;;;;;49.85;9.41;97964.94;6318885;28;20542;-68
2023/09/25 07:32:49;;;;;;;2.00;1.40;;;;;;;49.69;9.38;97958.22;6317420;28;20090;-69
2023/09/25 07:35:54;;;;;;;5.10;2.75;;;;;;;46.84;11.04;97954.09;6318971;28;20036;-69
2023/09/25 07:39:04;;;;;;;3.28;2.70;;;;;;;44.54;12.65;97938.94;6318977;28;20485;-68
2023/09/25 07:42:09;;;;;;;2.25;1.92;;;;;;;47.09;10.76;97938.84;6318953;28;20040;-68
2023/09/25 07:45:22;;;;;;;2.85;1.58;;;;;;;48.16;9.99;97932.72;6318144;28;20524;-68
2023/09/25 07:48:30;;;;;;;4.53;1.55;;;;;;;49.80;9.47;97939.97;6318730;28;20047;-68
2023/09/25 07:51:34;;;;;;;2.83;1.40;;;;;;;51.34;8.46;97932.50;6318590;28;20040;-68
2023/09/25 07:54:44;;;;;;;1.55;1.42;;;;;;;52.06;8.16;97944.41;6318057;28;20143;-68
2023/09/25 07:57:45;;;;;;;3.55;1.35;;;;;;;50.75;8.65;97930.50;6317902;28;20046;-68
2023/09/25 08:00:49;;;;;;;2.22;1.40;;;;;;;51.33;8.60;97933.66;6323055;28;20036;-69
2023/09/25 08:03:54;;;;;;;1.67;1.10;;;;;;;51.34;8.30;97926.06;6322014;28;20057;-69
2023/09/25 08:06:56;;;;;;;3.35;1.80;;;;;;;51.28;7.78;97922.63;6323139;28;20366;-69
2023/09/25 08:10:01;;;;;;;1.88;1.77;;;;;;;50.30;8.46;97914.19;6323060;28;20036;-69
2023/09/25 08:13:05;;;;;;;1.58;1.15;;;;;;;49.29;8.97;97908.03;6320913;28;20059;-68
2023/09/25 08:16:07;;;;;;;4.05;1.40;;;;;;;49.26;9.06;97903.06;6323051;28;20040;-68
2023/09/25 08:19:11;;;;;;;2.72;1.20;;;;;;;50.02;8.69;97908.16;6323341;28;20044;-68
2023/09/25 08:22:17;;;;;;;2.88;1.77;;;;;;;50.08;8.63;97911.59;6322994;28;20048;-69
2023/09/25 08:25:22;;;;;;;2.40;1.77;;;;;;;49.67;9.06;97896.19;6322933;28;20398;-68
2023/09/25 08:28:25;;;;;;;2.30;1.70;;;;;;;49.77;8.85;97895.88;6323155;28;20036;-68
2023/09/25 08:31:30;;;;;;;2.60;1.65;;;;;;;49.82;8.85;97892.03;6322306;28;20052;-68
2023/09/25 08:34:34;;;;;;;3.17;1.75;;;;;;;48.33;9.48;97887.34;6322583;28;20044;-69
2023/09/25 08:37:37;;;;;;;1.92;1.60;;;;;;;47.56;9.86;97875.31;6322491;28;20044;-69
2023/09/25 08:40:48;;;;;;;3.30;1.95;;;;;;;48.73;9.44;97867.78;6322528;28;20060;-68
2023/09/25 08:43:52;;;;;;;2.50;2.05;;;;;;;49.55;9.00;97877.25;6322647;28;20052;-69
2023/09/25 08:47:01;;;;;;;2.13;1.73;;;;;;;49.59;8.99;97871.84;6322655;28;20067;-69
2023/09/25 08:50:02;;;;;;;4.22;2.03;;;;;;;49.77;8.91;97867.88;6320011;28;20063;-69
2023/09/25 08:53:10;;;;;;;2.42;1.90;;;;;;;50.03;9.04;97858.63;6322010;28;20497;-68
2023/09/25 08:56:15;;;;;;;3.70;2.60;;;;;;;49.79;9.00;97854.38;6322466;28;20044;-68
2023/09/25 08:59:20;;;;;;;2.55;2.35;;;;;;;49.55;9.16;97854.06;6322249;28;20147;-69
2023/09/25 09:02:24;;;;;;;3.05;2.58;;;;;;;49.69;9.14;97854.72;6321498;28;20075;-69
2023/09/25 09:05:26;;;;;;;2.72;2.20;;;;;;;49.60;9.16;97851.94;6321853;28;20067;-68
2023/09/25 09:08:33;;;;;;;2.38;1.73;;;;;;;49.14;8.98;97844.19;6320327;28;20517;-69
2023/09/25 09:11:38;;;;;;;3.30;1.92;;;;;;;48.41;9.22;97841.84;6321109;28;20036;-69
2023/09/25 09:14:42;;;;;;;4.20;2.40;;;;;;;47.02;10.11;97832.53;6321698;28;20040;-68
2023/09/25 09:17:46;;;;;;;5.55;2.67;;;;;;;46.45;10.26;97824.56;6321690;28;20131;-69
2023/09/25 09:20:48;;;;;;;3.58;2.72;;;;;;;46.43;10.15;97820.44;6321246;28;20055;-69
2023/09/25 09:23:57;;;;;;;3.22;1.88;;;;;;;46.11;10.28;97819.38;6320657;28;20047;-69
2023/09/25 09:27:07;;;;;;;3.22;2.83;;;;;;;46.03;10.46;97822.88;6321326;28;20553;-68
2023/09/25 09:30:23;;;;;;;3.42;2.65;;;;;;;46.23;10.18;97822.50;6321273;28;20032;-68
2023/09/25 09:33:29;;;;;;;3.50;2.45;;;;;;;45.51;10.71;97827.66;6321332;28;20421;-69
2023/09/25 09:36:32;;;;;;;5.15;2.03;;;;;;;45.25;10.84;97808.63;6321994;28;20149;-69
2023/09/25 09:39:34;;;;;;;4.20;3.10;;;;;;;44.04;11.22;97807.13;6321274;28;20048;-69
2023/09/25 09:42:43;;;;;;;3.05;2.67;;;;;;;42.27;12.75;97803.31;6320297;28;20462;-68
2023/09/25 09:45:50;;;;;;;3.65;2.22;;;;;;;42.89;12.14;97798.34;6321017;28;20040;-68
2023/09/25 09:48:55;;;;;;;2.83;2.40;;;;;;;43.20;11.71;97783.22;6321203;28;20093;-68
2023/09/25 09:52:00;;;;;;;3.05;2.65;;;;;;;43.40;11.94;97784.97;6319491;28;20056;-69
2023/09/25 09:55:10;;;;;;;5.20;2.42;;;;;;;43.06;12.20;97787.72;6320815;28;20050;-69
2023/09/25 09:58:15;;;;;;;5.03;2.53;;;;;;;42.70;11.82;97789.84;6320622;28;20543;-69
2023/09/25 10:01:20;;;;;;;4.07;2.50;;;;;;;42.10;12.93;97792.59;6318600;28;20040;-69
2023/09/25 10:04:26;;;;;;;3.38;2.35;;;;;;;42.24;12.62;97788.09;6320131;28;20044;-69
2023/09/25 10:07:30;;;;;;;4.82;2.50;;;;;;;42.31;12.41;97779.50;6320355;28;20044;-69
2023/09/25 10:10:43;;;;;;;4.65;2.40;;;;;;;41.43;13.15;97784.34;6320473;28;20058;-70
2023/09/25 10:13:52;;;;;;;5.18;2.55;;;;;;;40.66;13.68;97779.84;6319951;28;20052;-69
2023/09/25 10:17:00;;;;;;;3.08;2.22;;;;;;;40.88;13.56;97782.34;6319829;28;20627;-69
2023/09/25 10:20:02;;;;;;;3.13;2.15;;;;;;;41.56;13.14;97776.63;6320062;28;20141;-70
2023/09/25 10:23:21;;;;;;;6.50;3.40;;;;;;;42.29;12.80;97773.41;6316819;28;20059;-69
2023/09/25 10:26:31;;;;;;;3.35;2.83;;;;;;;42.49;12.56;97772.53;6319527;28;20055;-70
2023/09/25 10:29:38;;;;;;;3.75;2.60;;;;;;;42.93;12.08;97771.75;6319896;28;20048;-69
2023/09/25 10:32:51;;;;;;;4.80;2.83;;;;;;;43.46;11.90;97769.13;6319690;28;20052;-69
2023/09/25 10:36:01;;;;;;;3.73;3.37;;;;;;;42.91;12.53;97760.13;6317866;28;20078;-68
2023/09/25 10:39:07;;;;;;;5.32;3.42;;;;;;;42.24;12.62;97756.84;6319330;28;20051;-69
2023/09/25 10:42:08;;;;;;;4.05;3.15;;;;;;;41.36;13.40;97756.19;6318984;28;20052;-68
2023/09/25 10:45:22;;;;;;;5.68;3.00;;;;;;;41.11;13.57;97747.88;6319557;28;20044;-70
2023/09/25 10:48:27;;;;;;;3.03;2.70;;;;;;;39.66;14.62;97740.16;6318915;28;20047;-69
2023/09/25 10:51:31;;;;;;;3.83;2.30;;;;;;;38.63;15.04;97732.09;6318869;28;20043;-69
2023/09/25 10:54:34;;;;;;;3.95;2.50;;;;;;;37.97;16.09;97732.97;6319300;28;20046;-69
2023/09/25 10:57:39;;;;;;;2.90;2.45;;;;;;;37.30;16.20;97730.28;6319322;28;20126;-69
2023/09/25 11:00:42;;;;;;;13.45;9.10;;;;;;;36.79;17.06;97729.41;6319105;28;20178;-68
2023/09/25 11:03:47;;;;;;;27.65;13.57;;;;;;;37.59;16.53;97725.53;6319147;28;20052;-70
2023/09/25 11:06:49;;;;;;;12.68;6.47;;;;;;;38.10;16.25;97726.22;6318495;28;20113;-68
2023/09/25 11:09:53;;;;;;;7.25;4.03;;;;;;;38.02;16.48;97720.34;6318871;28;20071;-68
2023/09/25 11:13:00;;;;;;;4.88;3.22;;;;;;;38.25;16.05;97725.59;6319208;28;20416;-70
2023/09/25 11:16:04;;;;;;;6.28;4.70;;;;;;;37.75;16.00;97727.41;6318972;28;20517;-70
2023/09/25 11:19:10;;;;;;;7.45;4.30;;;;;;;36.93;16.65;97714.28;6317953;28;20047;-69
2023/09/25 11:22:18;;;;;;;6.20;4.03;;;;;;;36.63;17.59;97720.91;6318725;28;20048;-69
2023/09/25 11:25:24;;;;;;;5.50;3.28;;;;;;;36.39;17.58;97713.84;6319058;28;20044;-70
2023/09/25 11:28:32;;;;;;;4.90;2.80;;;;;;;35.98;17.96;97716.56;6318718;28;20088;-69
2023/09/25 11:31:39;;;;;;;6.97;3.08;;;;;;;35.86;17.71;97715.75;6318916;28;20040;-70
2023/09/25 11:34:45;;;;;;;2.83;2.53;;;;;;;35.26;18.51;97700.41;6320748;28;20059;-70
2023/09/25 11:38:03;;;;;;;4.00;2.80;;;;;;;34.79;18.91;97705.81;6322715;28;20631;-70
2023/09/25 11:41:05;;;;;;;3.78;2.67;;;;;;;33.85;19.89;97705.34;6323551;28;20550;-69
2023/09/25 11:44:09;;;;;;;8.27;2.53;;;;;;;33.16;20.62;97695.56;6323307;28;20048;-70
2023/09/25 11:47:13;;;;;;;3.65;2.55;;;;;;;32.74;20.99;97692.53;6323091;28;20044;-70
2023/09/25 11:50:17;;;;;;;4.88;3.00;;;;;;;32.44;21.22;97701.25;6323336;28;20056;-69
2023/09/25 11:53:23;;;;;;;3.00;2.80;;;;;;;32.63;21.25;97696.78;6323323;28;20044;-70
2023/09/25 11:56:27;;;;;;;4.00;3.53;;;;;;;33.21;20.90;97698.47;6323253;28;20040;-70
2023/09/25 11:59:32;;;;;;;4.35;3.42;;;;;;;33.56;20.06;97695.19;6323133;28;20048;-69
2023/09/25 12:02:36;;;;;;;4.20;3.05;;;;;;;33.75;20.08;97699.59;6323030;28;20044;-69
2023/09/25 12:05:38;;;;;;;7.47;3.60;;;;;;;33.57;20.05;97691.41;6322747;28;20052;-69
2023/09/25 12:08:45;;;;;;;3.53;2.88;;;;;;;33.40;20.58;97694.69;6323233;28;20435;-69
2023/09/25 12:11:46;;;;;;;5.30;3.25;;;;;;;33.87;20.20;97691.47;6322904;28;20413;-69
2023/09/25 12:14:53;;;;;;;4.90;2.95;;;;;;;33.53;20.50;97670.03;6321291;28;20047;-70
2023/09/25 12:17:59;;;;;;;4.72;3.30;;;;;;;33.04;20.95;97677.22;6322827;28;20604;-69
2023/09/25 12:21:11;;;;;;;5.97;3.15;;;;;;;32.44;21.33;97682.19;6322744;28;20054;-70
2023/09/25 12:24:26;;;;;;;3.08;2.75;;;;;;;31.77;22.27;97677.06;6322407;28;20612;-69
2023/09/25 12:27:32;;;;;;;10.82;3.63;;;;;;;31.28;22.37;97673.00;6322827;28;20043;-70
2023/09/25 12:30:37;;;;;;;6.25;4.22;;;;;;;30.81;22.82;97682.22;6322585;28;20500;-69
2023/09/25 12:33:41;;;;;;;5.03;3.65;;;;;;;30.58;22.91;97674.47;6322297;28;20162;-69
2023/09/25 12:36:45;;;;;;;7.38;3.15;;;;;;;30.27;23.17;97680.47;6323136;28;20036;-70
2023/09/25 12:39:49;;;;;;;7.20;3.15;;;;;;;29.92;23.86;97673.22;6322923;28;20040;-70
2023/09/25 12:42:50;;;;;;;4.47;3.38;;;;;;;29.59;24.29;97661.34;6322266;28;20047;-70
2023/09/25 12:45:55;;;;;;;6.43;4.13;;;;;;;29.45;24.47;97672.13;6320075;28;20413;-70
2023/09/25 12:49:01;;;;;;;4.20;3.40;;;;;;;29.12;24.36;97671.91;6322269;28;20032;-70
2023/09/25 12:52:05;;;;;;;10.85;3.53;;;;;;;28.90;24.59;97667.53;6321787;28;20047;-71
2023/09/25 12:55:09;;;;;;;5.32;3.42;;;;;;;28.72;24.99;97670.75;6321558;28;20040;-70
2023/09/25 12:58:13;;;;;;;8.15;4.10;;;;;;;28.53;25.19;97670.34;6320886;28;20044;-70
2023/09/25 13:01:20;;;;;;;13.82;4.25;;;;;;;28.28;25.68;97669.88;6320762;28;20040;-70
2023/09/25 13:04:26;;;;;;;11.10;4.00;;;;;;;27.92;26.15;97659.09;6320516;28;20044;-69
2023/09/25 13:07:30;;;;;;;5.80;3.42;;;;;;;27.52;26.38;97658.56;6320761;28;20047;-70
2023/09/25 13:10:35;;;;;;;6.97;4.10;;;;;;;26.99;26.87;97671.25;6320362;28;20055;-69
2023/09/25 13:13:36;;;;;;;9.82;4.38;;;;;;;26.59;27.27;97668.75;6320341;28;20052;-69
2023/09/25 13:16:46;;;;;;;8.63;5.28;;;;;;;26.21;28.12;97667.81;6320979;28;20139;-69
2023/09/25 13:19:50;;;;;;;9.18;4.50;;;;;;;25.87;28.58;97674.41;6321347;28;20048;-69
2023/09/25 13:22:57;;;;;;;8.07;5.03;;;;;;;25.57;28.86;97667.13;6321220;28;20044;-69
2023/09/25 13:25:59;;;;;;;9.80;6.03;;;;;;;25.26;29.32;97670.59;6320877;28;20131;-69
2023/09/25 13:29:01;;;;;;;8.93;6.00;;;;;;;24.93;29.55;97659.84;6320670;28;20135;-70
2023/09/25 13:32:04;;;;;;;11.07;6.20;;;;;;;24.73;29.68;97666.63;6321001;28;20046;-70
2023/09/25 13:35:09;;;;;;;11.20;6.67;;;;;;;24.46;30.20;97663.28;6320561;28;20429;-69
2023/09/25 13:38:10;;;;;;;10.73;5.90;;;;;;;24.20;30.53;97652.59;6319993;28;20800;-69
2023/09/25 13:41:14;;;;;;;6.45;5.00;;;;;;;24.04;31.13;97664.19;6320714;28;20036;-70
2023/09/25 13:44:16;;;;;;;12.88;6.57;;;;;;;23.82;31.53;97667.50;6320296;28;20272;-71
2023/09/25 13:47:20;;;;;;;13.23;6.30;;;;;;;23.63;31.84;97666.72;6320874;28;20061;-70
2023/09/25 13:50:24;;;;;;;17.88;9.73;;;;;;;23.42;32.76;97674.38;6318965;28;20413;-70
2023/09/25 13:53:28;;;;;;;21.05;10.45;;;;;;;23.11;33.65;97658.78;6320372;28;20048;-70
2023/09/25 13:56:37;;;;;;;21.50;13.60;;;;;;;22.98;34.38;97658.34;6320521;28;20054;-70
2023/09/25 13:59:42;;;;;;;23.13;14.02;;;;;;;22.76;35.29;97668.59;6318878;28;20059;-70
2023/09/25 14:02:44;;;;;;;27.33;14.52;;;;;;;22.55;36.39;97665.41;6320722;28;20051;-70
2023/09/25 14:05:48;;;;;;;23.33;11.57;;;;;;;22.34;36.18;97666.56;6318994;28;20318;-70
2023/09/25 14:08:53;;;;;;;19.63;10.73;;;;;;;22.20;36.36;97667.13;6320437;28;20040;-70
2023/09/25 14:11:54;;;;;;;16.10;7.75;;;;;;;22.02;36.26;97663.53;6320083;28;20046;-70
2023/09/25 14:15:00;;;;;;;14.65;7.65;;;;;;;21.87;36.85;97666.72;6319942;28;20051;-69
2023/09/25 14:18:08;;;;;;;19.63;7.85;;;;;;;21.72;37.11;97668.25;6319669;28;20117;-69
2023/09/25 14:21:15;;;;;;;25.63;9.77;;;;;;;21.55;37.97;97666.38;6319407;28;20418;-70
2023/09/25 14:24:19;;;;;;;24.95;10.27;;;;;;;21.35;38.84;97666.44;6319974;28;20044;-69
2023/09/25 14:27:24;;;;;;;24.35;9.70;;;;;;;21.23;39.25;97670.28;6319861;28;20122;-70